sensor_id;sensor_type;location;lat;lon;timestamp;temperature;humidity
34985;DHT22;21190;58.750;17.004;2024-03-08T00:00:12;-1.60;99.90
34985;DHT22;21190;58.750;17.004;2024-03-08T00:02:42;-1.60;99.90
34985;DHT22;21190;58.750;17.004;2024-03-08T00:05:11;-1.70;99.90
34985;DHT22;21190;58.750;17.004;2024-03-08T00:07:39;-1.70;99.90
34985;DHT22;21190;58.750;17.004;2024-03-08T00:10:10;-1.60;99.90
34985;DHT22;21190;58.750;17.004;2024-03-08T00:12:40;-1.60;99.90
34985;DHT22;21190;58.750;17.004;2024-03-08T00:15:11;-1.70;99.90
34985;DHT22;21190;58.750;17.004;2024-03-08T00:17:41;-1.60;99.90
34985;DHT22;21190;58.750;17.004;2024-03-08T00:20:09;-1.60;99.90
34985;DHT22;21190;58.750;17.004;2024-03-08T00:22:39;-1.60;99.90
34985;DHT22;21190;58.750;17.004;2024-03-08T00:25:07;-1.70;99.90
34985;DHT22;21190;58.750;17.004;2024-03-08T00:27:39;-1.60;99.90
34985;DHT22;21190;58.750;17.004;2024-03-08T00:30:06;-1.60;99.90
34985;DHT22;21190;58.750;17.004;2024-03-08T00:32:35;-1.60;99.90
34985;DHT22;21190;58.750;17.004;2024-03-08T00:35:03;-1.60;99.90
34985;DHT22;21190;58.750;17.004;2024-03-08T00:37:30;-1.60;99.90
34985;DHT22;21190;58.750;17.004;2024-03-08T00:39:57;-1.60;99.90
34985;DHT22;21190;58.750;17.004;2024-03-08T00:42:25;-1.60;99.90
34985;DHT22;21190;58.750;17.004;2024-03-08T00:44:52;-1.60;99.90
34985;DHT22;21190;58.750;17.004;2024-03-08T00:47:20;-1.60;99.90
34985;DHT22;21190;58.750;17.004;2024-03-08T00:49:47;-1.70;99.90
34985;DHT22;21190;58.750;17.004;2024-03-08T00:52:14;-1.80;99.90
34985;DHT22;21190;58.750;17.004;2024-03-08T00:54:41;-1.70;99.90
34985;DHT22;21190;58.750;17.004;2024-03-08T00:57:11;-1.80;99.90
34985;DHT22;21190;58.750;17.004;2024-03-08T00:59:39;-1.80;99.90
34985;DHT22;21190;58.750;17.004;2024-03-08T01:02:06;-1.70;99.90
34985;DHT22;21190;58.750;17.004;2024-03-08T01:04:33;-1.80;99.90
34985;DHT22;21190;58.750;17.004;2024-03-08T01:07:01;-1.80;99.90
34985;DHT22;21190;58.750;17.004;2024-03-08T01:09:28;-1.80;99.90
34985;DHT22;21190;58.750;17.004;2024-03-08T01:11:55;-1.80;99.90
34985;DHT22;21190;58.750;17.004;2024-03-08T01:14:23;-1.80;99.90
34985;DHT22;21190;58.750;17.004;2024-03-08T01:16:52;-1.90;99.90
34985;DHT22;21190;58.750;17.004;2024-03-08T01:19:20;-1.90;99.90
34985;DHT22;21190;58.750;17.004;2024-03-08T01:21:47;-1.90;99.90
34985;DHT22;21190;58.750;17.004;2024-03-08T01:24:14;-2.00;99.90
34985;DHT22;21190;58.750;17.004;2024-03-08T01:26:41;-1.90;99.90
34985;DHT22;21190;58.750;17.004;2024-03-08T01:29:08;-1.90;99.90
34985;DHT22;21190;58.750;17.004;2024-03-08T01:31:36;-1.80;99.90
34985;DHT22;21190;58.750;17.004;2024-03-08T01:34:05;-1.90;99.90
34985;DHT22;21190;58.750;17.004;2024-03-08T01:36:33;-1.80;99.90
34985;DHT22;21190;58.750;17.004;2024-03-08T01:39:00;-1.80;99.90
34985;DHT22;21190;58.750;17.004;2024-03-08T01:41:27;-1.90;99.90
34985;DHT22;21190;58.750;17.004;2024-03-08T01:43:56;-1.90;99.90
34985;DHT22;21190;58.750;17.004;2024-03-08T01:46:24;-1.90;99.90
34985;DHT22;21190;58.750;17.004;2024-03-08T01:48:51;-1.90;99.90
34985;DHT22;21190;58.750;17.004;2024-03-08T01:51:20;-1.70;99.90
34985;DHT22;21190;58.750;17.004;2024-03-08T01:53:48;-1.80;99.90
34985;DHT22;21190;58.750;17.004;2024-03-08T01:56:16;-1.80;99.90
34985;DHT22;21190;58.750;17.004;2024-03-08T01:58:45;-2.00;99.90
34985;DHT22;21190;58.750;17.004;2024-03-08T02:01:14;-2.00;99.90
34985;DHT22;21190;58.750;17.004;2024-03-08T02:03:43;-2.00;99.90
34985;DHT22;21190;58.750;17.004;2024-03-08T02:06:12;-2.00;99.90
34985;DHT22;21190;58.750;17.004;2024-03-08T02:08:45;-2.10;99.90
34985;DHT22;21190;58.750;17.004;2024-03-08T02:11:14;-2.10;99.90
34985;DHT22;21190;58.750;17.004;2024-03-08T02:13:41;-2.10;99.90
34985;DHT22;21190;58.750;17.004;2024-03-08T02:16:09;-2.10;99.90
34985;DHT22;21190;58.750;17.004;2024-03-08T02:18:36;-2.20;99.90
34985;DHT22;21190;58.750;17.004;2024-03-08T02:21:05;-2.20;99.90
34985;DHT22;21190;58.750;17.004;2024-03-08T02:23:33;-2.20;99.90
34985;DHT22;21190;58.750;17.004;2024-03-08T02:26:01;-2.20;99.90
34985;DHT22;21190;58.750;17.004;2024-03-08T02:28:28;-2.10;99.90
34985;DHT22;21190;58.750;17.004;2024-03-08T02:30:56;-2.20;99.90
34985;DHT22;21190;58.750;17.004;2024-03-08T02:33:26;-2.10;99.90
34985;DHT22;21190;58.750;17.004;2024-03-08T02:35:54;-2.20;99.90
34985;DHT22;21190;58.750;17.004;2024-03-08T02:38:23;-2.20;99.90
34985;DHT22;21190;58.750;17.004;2024-03-08T02:40:53;-2.20;99.90
34985;DHT22;21190;58.750;17.004;2024-03-08T02:43:22;-2.30;99.90
34985;DHT22;21190;58.750;17.004;2024-03-08T02:45:50;-2.30;99.90
34985;DHT22;21190;58.750;17.004;2024-03-08T02:48:21;-2.30;99.90
34985;DHT22;21190;58.750;17.004;2024-03-08T02:50:49;-2.30;99.90
34985;DHT22;21190;58.750;17.004;2024-03-08T02:53:18;-2.30;99.90
34985;DHT22;21190;58.750;17.004;2024-03-08T02:55:46;-2.30;99.90
34985;DHT22;21190;58.750;17.004;2024-03-08T02:58:14;-2.40;99.90
34985;DHT22;21190;58.750;17.004;2024-03-08T03:00:42;-2.40;99.90
34985;DHT22;21190;58.750;17.004;2024-03-08T03:03:10;-2.40;99.90
34985;DHT22;21190;58.750;17.004;2024-03-08T03:05:38;-2.40;99.90
34985;DHT22;21190;58.750;17.004;2024-03-08T03:08:13;-2.50;99.90
34985;DHT22;21190;58.750;17.004;2024-03-08T03:10:42;-2.40;99.90
34985;DHT22;21190;58.750;17.004;2024-03-08T03:13:09;-2.40;99.90
34985;DHT22;21190;58.750;17.004;2024-03-08T03:15:36;-2.40;99.90
34985;DHT22;21190;58.750;17.004;2024-03-08T03:18:04;-2.50;99.90
34985;DHT22;21190;58.750;17.004;2024-03-08T03:20:35;-2.40;99.90
34985;DHT22;21190;58.750;17.004;2024-03-08T03:23:10;-2.40;99.90
34985;DHT22;21190;58.750;17.004;2024-03-08T03:25:42;-2.40;99.90
34985;DHT22;21190;58.750;17.004;2024-03-08T03:28:09;-2.40;99.90
34985;DHT22;21190;58.750;17.004;2024-03-08T03:30:38;-2.40;99.90
34985;DHT22;21190;58.750;17.004;2024-03-08T03:33:06;-2.40;99.90
34985;DHT22;21190;58.750;17.004;2024-03-08T03:35:35;-2.40;99.90
34985;DHT22;21190;58.750;17.004;2024-03-08T03:38:04;-2.40;99.90
34985;DHT22;21190;58.750;17.004;2024-03-08T03:40:40;-2.40;99.90
34985;DHT22;21190;58.750;17.004;2024-03-08T03:43:08;-2.40;99.90
34985;DHT22;21190;58.750;17.004;2024-03-08T03:45:38;-2.40;99.90
34985;DHT22;21190;58.750;17.004;2024-03-08T03:48:06;-2.50;99.90
34985;DHT22;21190;58.750;17.004;2024-03-08T03:50:37;-2.50;99.90
34985;DHT22;21190;58.750;17.004;2024-03-08T03:53:06;-2.50;99.90
34985;DHT22;21190;58.750;17.004;2024-03-08T03:55:37;-2.50;99.90
34985;DHT22;21190;58.750;17.004;2024-03-08T03:58:08;-2.40;99.90
34985;DHT22;21190;58.750;17.004;2024-03-08T04:00:38;-2.40;99.90
34985;DHT22;21190;58.750;17.004;2024-03-08T04:03:05;-2.40;99.90
34985;DHT22;21190;58.750;17.004;2024-03-08T04:05:33;-2.40;99.90
34985;DHT22;21190;58.750;17.004;2024-03-08T04:08:00;-2.40;99.90
34985;DHT22;21190;58.750;17.004;2024-03-08T04:10:27;-2.50;99.90
34985;DHT22;21190;58.750;17.004;2024-03-08T04:12:54;-2.40;99.90
34985;DHT22;21190;58.750;17.004;2024-03-08T04:15:23;-2.50;99.90
34985;DHT22;21190;58.750;17.004;2024-03-08T04:17:51;-2.50;99.90
34985;DHT22;21190;58.750;17.004;2024-03-08T04:20:19;-2.40;99.90
34985;DHT22;21190;58.750;17.004;2024-03-08T04:22:48;-2.50;99.90
34985;DHT22;21190;58.750;17.004;2024-03-08T04:25:16;-2.50;99.90
34985;DHT22;21190;58.750;17.004;2024-03-08T04:27:44;-2.50;99.90
34985;DHT22;21190;58.750;17.004;2024-03-08T04:30:12;-2.50;99.90
34985;DHT22;21190;58.750;17.004;2024-03-08T04:32:40;-2.50;99.90
34985;DHT22;21190;58.750;17.004;2024-03-08T04:35:08;-2.50;99.90
34985;DHT22;21190;58.750;17.004;2024-03-08T04:37:36;-2.50;99.90
34985;DHT22;21190;58.750;17.004;2024-03-08T04:40:03;-2.50;99.90
34985;DHT22;21190;58.750;17.004;2024-03-08T04:42:30;-2.50;99.90
34985;DHT22;21190;58.750;17.004;2024-03-08T04:45:00;-2.50;99.90
34985;DHT22;21190;58.750;17.004;2024-03-08T04:47:27;-2.50;99.90
34985;DHT22;21190;58.750;17.004;2024-03-08T04:49:55;-2.50;99.90
34985;DHT22;21190;58.750;17.004;2024-03-08T04:52:23;-2.50;99.90
34985;DHT22;21190;58.750;17.004;2024-03-08T04:54:50;-2.50;99.90
34985;DHT22;21190;58.750;17.004;2024-03-08T04:57:17;-2.50;99.90
34985;DHT22;21190;58.750;17.004;2024-03-08T04:59:47;-2.50;99.90
34985;DHT22;21190;58.750;17.004;2024-03-08T05:02:15;-2.50;99.90
34985;DHT22;21190;58.750;17.004;2024-03-08T05:04:42;-2.50;99.90
34985;DHT22;21190;58.750;17.004;2024-03-08T05:07:10;-2.40;99.90
34985;DHT22;21190;58.750;17.004;2024-03-08T05:09:37;-2.40;99.90
34985;DHT22;21190;58.750;17.004;2024-03-08T05:12:05;-2.50;99.90
34985;DHT22;21190;58.750;17.004;2024-03-08T05:14:32;-2.50;99.90
34985;DHT22;21190;58.750;17.004;2024-03-08T05:17:01;-2.50;99.90
34985;DHT22;21190;58.750;17.004;2024-03-08T05:19:28;-2.60;99.90
34985;DHT22;21190;58.750;17.004;2024-03-08T05:22:01;-2.50;99.90
34985;DHT22;21190;58.750;17.004;2024-03-08T05:24:28;-2.60;99.90
34985;DHT22;21190;58.750;17.004;2024-03-08T05:26:57;-2.50;99.90
34985;DHT22;21190;58.750;17.004;2024-03-08T05:29:26;-2.60;99.90
34985;DHT22;21190;58.750;17.004;2024-03-08T05:31:54;-2.50;99.90
34985;DHT22;21190;58.750;17.004;2024-03-08T05:34:22;-2.50;99.90
34985;DHT22;21190;58.750;17.004;2024-03-08T05:36:49;-2.50;99.90
34985;DHT22;21190;58.750;17.004;2024-03-08T05:39:18;-2.50;99.90
34985;DHT22;21190;58.750;17.004;2024-03-08T05:41:47;-2.50;99.90
34985;DHT22;21190;58.750;17.004;2024-03-08T05:44:15;-2.50;99.90
34985;DHT22;21190;58.750;17.004;2024-03-08T05:46:44;-2.50;99.90
34985;DHT22;21190;58.750;17.004;2024-03-08T05:49:14;-2.50;99.90
34985;DHT22;21190;58.750;17.004;2024-03-08T05:51:42;-2.50;99.90
34985;DHT22;21190;58.750;17.004;2024-03-08T05:54:11;-2.50;99.90
34985;DHT22;21190;58.750;17.004;2024-03-08T05:56:42;-2.50;99.90
34985;DHT22;21190;58.750;17.004;2024-03-08T05:59:11;-2.50;99.90
34985;DHT22;21190;58.750;17.004;2024-03-08T06:01:38;-2.50;99.90
34985;DHT22;21190;58.750;17.004;2024-03-08T06:04:09;-2.50;99.90
34985;DHT22;21190;58.750;17.004;2024-03-08T06:06:39;-2.40;99.90
34985;DHT22;21190;58.750;17.004;2024-03-08T06:09:07;-2.40;99.90
34985;DHT22;21190;58.750;17.004;2024-03-08T06:11:45;-2.40;99.90
34985;DHT22;21190;58.750;17.004;2024-03-08T06:14:13;-2.40;99.90
34985;DHT22;21190;58.750;17.004;2024-03-08T06:16:40;-2.40;99.90
34985;DHT22;21190;58.750;17.004;2024-03-08T06:19:07;-2.40;99.90
34985;DHT22;21190;58.750;17.004;2024-03-08T06:21:34;-2.30;99.90
34985;DHT22;21190;58.750;17.004;2024-03-08T06:24:02;-2.30;99.90
34985;DHT22;21190;58.750;17.004;2024-03-08T06:26:29;-2.30;99.90
34985;DHT22;21190;58.750;17.004;2024-03-08T06:28:58;-2.30;99.90
34985;DHT22;21190;58.750;17.004;2024-03-08T06:31:26;-2.30;99.90
34985;DHT22;21190;58.750;17.004;2024-03-08T06:33:53;-2.20;99.90
34985;DHT22;21190;58.750;17.004;2024-03-08T06:36:23;-2.10;99.90
34985;DHT22;21190;58.750;17.004;2024-03-08T06:38:51;-2.10;99.90
34985;DHT22;21190;58.750;17.004;2024-03-08T06:41:19;-2.10;99.90
34985;DHT22;21190;58.750;17.004;2024-03-08T06:43:47;-2.10;99.90
34985;DHT22;21190;58.750;17.004;2024-03-08T06:46:16;-2.00;99.90
34985;DHT22;21190;58.750;17.004;2024-03-08T06:48:43;-2.00;99.90
34985;DHT22;21190;58.750;17.004;2024-03-08T06:51:13;-2.00;99.90
34985;DHT22;21190;58.750;17.004;2024-03-08T06:53:41;-1.90;99.90
34985;DHT22;21190;58.750;17.004;2024-03-08T06:56:09;-1.80;99.90
34985;DHT22;21190;58.750;17.004;2024-03-08T06:58:36;-1.70;99.90
34985;DHT22;21190;58.750;17.004;2024-03-08T07:01:04;-1.70;99.90
34985;DHT22;21190;58.750;17.004;2024-03-08T07:03:35;-1.60;99.90
34985;DHT22;21190;58.750;17.004;2024-03-08T07:06:02;-1.60;99.90
34985;DHT22;21190;58.750;17.004;2024-03-08T07:08:31;-1.60;99.90
34985;DHT22;21190;58.750;17.004;2024-03-08T07:10:59;-1.50;99.90
34985;DHT22;21190;58.750;17.004;2024-03-08T07:13:27;-1.40;99.90
34985;DHT22;21190;58.750;17.004;2024-03-08T07:15:57;-1.30;99.90
34985;DHT22;21190;58.750;17.004;2024-03-08T07:18:28;-1.10;99.90
34985;DHT22;21190;58.750;17.004;2024-03-08T07:20:57;-1.00;99.90
34985;DHT22;21190;58.750;17.004;2024-03-08T07:23:25;-0.90;99.90
34985;DHT22;21190;58.750;17.004;2024-03-08T07:26:10;-0.90;99.90
34985;DHT22;21190;58.750;17.004;2024-03-08T07:28:37;-0.90;99.90
34985;DHT22;21190;58.750;17.004;2024-03-08T07:31:05;-0.70;99.90
34985;DHT22;21190;58.750;17.004;2024-03-08T07:33:52;-0.60;99.90
34985;DHT22;21190;58.750;17.004;2024-03-08T07:36:22;-0.50;99.90
34985;DHT22;21190;58.750;17.004;2024-03-08T07:38:50;-0.40;99.90
34985;DHT22;21190;58.750;17.004;2024-03-08T07:41:17;-0.30;99.90
34985;DHT22;21190;58.750;17.004;2024-03-08T07:43:45;-0.20;99.90
34985;DHT22;21190;58.750;17.004;2024-03-08T07:46:12;0.00;99.90
34985;DHT22;21190;58.750;17.004;2024-03-08T07:48:40;0.10;99.90
34985;DHT22;21190;58.750;17.004;2024-03-08T07:51:07;0.10;99.90
34985;DHT22;21190;58.750;17.004;2024-03-08T07:53:36;0.20;99.90
34985;DHT22;21190;58.750;17.004;2024-03-08T07:56:05;0.30;99.90
34985;DHT22;21190;58.750;17.004;2024-03-08T07:58:32;0.30;99.90
34985;DHT22;21190;58.750;17.004;2024-03-08T08:01:01;0.40;99.90
34985;DHT22;21190;58.750;17.004;2024-03-08T08:03:29;0.50;99.90
34985;DHT22;21190;58.750;17.004;2024-03-08T08:05:56;0.60;99.90
34985;DHT22;21190;58.750;17.004;2024-03-08T08:08:23;0.70;99.90
34985;DHT22;21190;58.750;17.004;2024-03-08T08:10:53;0.70;99.90
34985;DHT22;21190;58.750;17.004;2024-03-08T08:13:20;0.90;99.90
34985;DHT22;21190;58.750;17.004;2024-03-08T08:15:47;0.90;99.90
34985;DHT22;21190;58.750;17.004;2024-03-08T08:18:14;1.00;99.90
34985;DHT22;21190;58.750;17.004;2024-03-08T08:20:42;1.10;99.90
34985;DHT22;21190;58.750;17.004;2024-03-08T08:23:09;1.20;99.90
34985;DHT22;21190;58.750;17.004;2024-03-08T08:25:39;1.10;99.90
34985;DHT22;21190;58.750;17.004;2024-03-08T08:28:06;1.20;99.90
34985;DHT22;21190;58.750;17.004;2024-03-08T08:30:33;1.40;99.90
34985;DHT22;21190;58.750;17.004;2024-03-08T08:33:00;1.50;99.90
34985;DHT22;21190;58.750;17.004;2024-03-08T08:35:28;1.60;99.90
34985;DHT22;21190;58.750;17.004;2024-03-08T08:37:56;1.60;99.90
34985;DHT22;21190;58.750;17.004;2024-03-08T08:40:24;1.80;99.90
34985;DHT22;21190;58.750;17.004;2024-03-08T08:42:55;1.80;99.90
34985;DHT22;21190;58.750;17.004;2024-03-08T08:45:24;1.90;99.90
34985;DHT22;21190;58.750;17.004;2024-03-08T08:47:55;2.00;99.90
34985;DHT22;21190;58.750;17.004;2024-03-08T08:50:22;2.10;99.90
34985;DHT22;21190;58.750;17.004;2024-03-08T08:52:51;2.20;99.90
34985;DHT22;21190;58.750;17.004;2024-03-08T08:55:18;2.30;99.90
34985;DHT22;21190;58.750;17.004;2024-03-08T08:57:48;2.30;99.90
34985;DHT22;21190;58.750;17.004;2024-03-08T09:00:16;2.30;99.90
34985;DHT22;21190;58.750;17.004;2024-03-08T09:02:44;2.30;99.90
34985;DHT22;21190;58.750;17.004;2024-03-08T09:05:11;2.40;99.90
34985;DHT22;21190;58.750;17.004;2024-03-08T09:07:39;2.50;99.90
34985;DHT22;21190;58.750;17.004;2024-03-08T09:10:07;2.60;99.90
34985;DHT22;21190;58.750;17.004;2024-03-08T09:12:39;2.60;99.90
34985;DHT22;21190;58.750;17.004;2024-03-08T09:15:06;2.70;99.90
34985;DHT22;21190;58.750;17.004;2024-03-08T09:17:39;2.70;99.90
34985;DHT22;21190;58.750;17.004;2024-03-08T09:20:09;2.80;99.90
34985;DHT22;21190;58.750;17.004;2024-03-08T09:22:45;2.90;99.90
34985;DHT22;21190;58.750;17.004;2024-03-08T09:25:15;3.00;99.90
34985;DHT22;21190;58.750;17.004;2024-03-08T09:27:43;3.10;99.90
34985;DHT22;21190;58.750;17.004;2024-03-08T09:30:10;3.10;99.90
34985;DHT22;21190;58.750;17.004;2024-03-08T09:32:40;3.20;99.90
34985;DHT22;21190;58.750;17.004;2024-03-08T09:35:08;3.30;99.90
34985;DHT22;21190;58.750;17.004;2024-03-08T09:37:35;3.30;99.90
34985;DHT22;21190;58.750;17.004;2024-03-08T09:40:03;3.40;99.90
34985;DHT22;21190;58.750;17.004;2024-03-08T09:42:37;3.40;99.90
34985;DHT22;21190;58.750;17.004;2024-03-08T09:45:09;3.50;99.90
34985;DHT22;21190;58.750;17.004;2024-03-08T09:47:44;3.50;99.90
34985;DHT22;21190;58.750;17.004;2024-03-08T09:50:12;3.60;99.90
34985;DHT22;21190;58.750;17.004;2024-03-08T09:52:40;3.60;99.90
34985;DHT22;21190;58.750;17.004;2024-03-08T09:55:08;3.70;99.90
34985;DHT22;21190;58.750;17.004;2024-03-08T09:57:39;3.80;99.90
34985;DHT22;21190;58.750;17.004;2024-03-08T10:00:07;4.00;99.90
34985;DHT22;21190;58.750;17.004;2024-03-08T10:02:51;3.90;99.90
34985;DHT22;21190;58.750;17.004;2024-03-08T10:05:20;3.90;99.90
34985;DHT22;21190;58.750;17.004;2024-03-08T10:07:48;4.00;99.90
34985;DHT22;21190;58.750;17.004;2024-03-08T10:10:16;4.10;99.90
34985;DHT22;21190;58.750;17.004;2024-03-08T10:12:43;4.20;99.90
34985;DHT22;21190;58.750;17.004;2024-03-08T10:15:12;4.20;99.90
34985;DHT22;21190;58.750;17.004;2024-03-08T10:17:41;4.40;99.90
34985;DHT22;21190;58.750;17.004;2024-03-08T10:20:18;4.40;99.90
34985;DHT22;21190;58.750;17.004;2024-03-08T10:22:46;4.50;99.90
34985;DHT22;21190;58.750;17.004;2024-03-08T10:25:28;4.60;99.90
34985;DHT22;21190;58.750;17.004;2024-03-08T10:27:57;4.60;99.90
34985;DHT22;21190;58.750;17.004;2024-03-08T10:30:24;4.60;99.90
34985;DHT22;21190;58.750;17.004;2024-03-08T10:32:51;4.60;99.90
34985;DHT22;21190;58.750;17.004;2024-03-08T10:35:19;4.70;99.90
34985;DHT22;21190;58.750;17.004;2024-03-08T10:37:49;4.80;99.90
34985;DHT22;21190;58.750;17.004;2024-03-08T10:40:27;4.80;99.90
34985;DHT22;21190;58.750;17.004;2024-03-08T10:42:56;4.80;99.90
34985;DHT22;21190;58.750;17.004;2024-03-08T10:45:37;4.80;99.90
34985;DHT22;21190;58.750;17.004;2024-03-08T10:48:30;4.90;99.90
34985;DHT22;21190;58.750;17.004;2024-03-08T10:51:05;5.00;99.90
34985;DHT22;21190;58.750;17.004;2024-03-08T10:53:34;5.00;99.90
34985;DHT22;21190;58.750;17.004;2024-03-08T10:56:04;5.00;99.90
34985;DHT22;21190;58.750;17.004;2024-03-08T10:58:32;5.00;99.90
34985;DHT22;21190;58.750;17.004;2024-03-08T11:01:01;5.10;99.90
34985;DHT22;21190;58.750;17.004;2024-03-08T11:06:57;5.20;99.90
34985;DHT22;21190;58.750;17.004;2024-03-08T11:09:29;5.20;99.90
34985;DHT22;21190;58.750;17.004;2024-03-08T11:12:28;5.20;99.90
34985;DHT22;21190;58.750;17.004;2024-03-08T11:15:01;5.30;99.90
34985;DHT22;21190;58.750;17.004;2024-03-08T11:19:59;5.50;99.90
34985;DHT22;21190;58.750;17.004;2024-03-08T11:22:33;5.50;99.90
34985;DHT22;21190;58.750;17.004;2024-03-08T11:25:04;5.50;99.90
34985;DHT22;21190;58.750;17.004;2024-03-08T11:27:37;5.50;99.90
34985;DHT22;21190;58.750;17.004;2024-03-08T11:30:07;5.60;99.90
34985;DHT22;21190;58.750;17.004;2024-03-08T11:32:51;5.50;99.90
34985;DHT22;21190;58.750;17.004;2024-03-08T11:35:21;5.60;99.90
34985;DHT22;21190;58.750;17.004;2024-03-08T11:37:50;5.60;99.90
34985;DHT22;21190;58.750;17.004;2024-03-08T11:40:18;5.60;99.90
34985;DHT22;21190;58.750;17.004;2024-03-08T11:42:48;5.60;99.90
34985;DHT22;21190;58.750;17.004;2024-03-08T11:45:16;5.60;99.90
34985;DHT22;21190;58.750;17.004;2024-03-08T11:47:45;5.60;99.90
34985;DHT22;21190;58.750;17.004;2024-03-08T11:50:17;5.70;99.90
34985;DHT22;21190;58.750;17.004;2024-03-08T11:52:46;6.00;99.90
34985;DHT22;21190;58.750;17.004;2024-03-08T11:55:14;6.00;99.90
34985;DHT22;21190;58.750;17.004;2024-03-08T11:57:41;5.90;99.90
34985;DHT22;21190;58.750;17.004;2024-03-08T12:00:18;5.90;99.90
34985;DHT22;21190;58.750;17.004;2024-03-08T12:03:05;6.00;99.90
34985;DHT22;21190;58.750;17.004;2024-03-08T12:05:33;6.00;99.90
34985;DHT22;21190;58.750;17.004;2024-03-08T12:08:05;6.00;99.90
34985;DHT22;21190;58.750;17.004;2024-03-08T12:10:34;5.90;99.90
34985;DHT22;21190;58.750;17.004;2024-03-08T12:13:02;5.90;99.90
34985;DHT22;21190;58.750;17.004;2024-03-08T12:15:39;6.00;99.90
34985;DHT22;21190;58.750;17.004;2024-03-08T12:18:06;6.10;99.90
34985;DHT22;21190;58.750;17.004;2024-03-08T12:20:34;6.20;99.90
34985;DHT22;21190;58.750;17.004;2024-03-08T12:23:02;6.10;99.90
34985;DHT22;21190;58.750;17.004;2024-03-08T12:25:33;6.20;99.90
34985;DHT22;21190;58.750;17.004;2024-03-08T12:28:11;6.10;99.90
34985;DHT22;21190;58.750;17.004;2024-03-08T12:30:50;6.20;99.90
34985;DHT22;21190;58.750;17.004;2024-03-08T12:33:20;6.30;99.90
34985;DHT22;21190;58.750;17.004;2024-03-08T12:35:54;6.40;99.90
34985;DHT22;21190;58.750;17.004;2024-03-08T12:38:22;6.30;99.90
34985;DHT22;21190;58.750;17.004;2024-03-08T12:40:58;6.20;99.90
34985;DHT22;21190;58.750;17.004;2024-03-08T12:43:26;6.30;99.90
34985;DHT22;21190;58.750;17.004;2024-03-08T12:45:58;6.30;99.90
34985;DHT22;21190;58.750;17.004;2024-03-08T12:48:26;6.40;99.90
34985;DHT22;21190;58.750;17.004;2024-03-08T12:50:53;6.40;99.90
34985;DHT22;21190;58.750;17.004;2024-03-08T12:53:21;6.40;99.90
34985;DHT22;21190;58.750;17.004;2024-03-08T12:55:50;6.40;99.90
34985;DHT22;21190;58.750;17.004;2024-03-08T12:58:18;6.40;99.90
34985;DHT22;21190;58.750;17.004;2024-03-08T13:00:47;6.50;99.90
34985;DHT22;21190;58.750;17.004;2024-03-08T13:03:19;6.50;99.90
34985;DHT22;21190;58.750;17.004;2024-03-08T13:05:47;6.50;99.90
34985;DHT22;21190;58.750;17.004;2024-03-08T13:08:17;6.60;99.90
34985;DHT22;21190;58.750;17.004;2024-03-08T13:10:48;6.70;99.90
34985;DHT22;21190;58.750;17.004;2024-03-08T13:13:15;6.80;99.90
34985;DHT22;21190;58.750;17.004;2024-03-08T13:15:44;6.80;99.90
34985;DHT22;21190;58.750;17.004;2024-03-08T13:18:12;6.80;99.90
34985;DHT22;21190;58.750;17.004;2024-03-08T13:20:40;6.90;99.90
34985;DHT22;21190;58.750;17.004;2024-03-08T13:23:14;7.00;99.90
34985;DHT22;21190;58.750;17.004;2024-03-08T13:25:41;6.90;99.90
34985;DHT22;21190;58.750;17.004;2024-03-08T13:28:09;6.90;99.90
34985;DHT22;21190;58.750;17.004;2024-03-08T13:30:38;7.00;99.90
34985;DHT22;21190;58.750;17.004;2024-03-08T13:33:05;6.90;99.90
34985;DHT22;21190;58.750;17.004;2024-03-08T13:35:34;6.80;99.90
34985;DHT22;21190;58.750;17.004;2024-03-08T13:38:02;6.70;99.90
34985;DHT22;21190;58.750;17.004;2024-03-08T13:40:36;6.90;99.90
34985;DHT22;21190;58.750;17.004;2024-03-08T13:43:03;6.90;99.90
34985;DHT22;21190;58.750;17.004;2024-03-08T13:45:31;6.90;99.90
34985;DHT22;21190;58.750;17.004;2024-03-08T13:48:00;6.90;99.90
34985;DHT22;21190;58.750;17.004;2024-03-08T13:50:31;6.90;99.90
34985;DHT22;21190;58.750;17.004;2024-03-08T13:52:58;7.00;99.90
34985;DHT22;21190;58.750;17.004;2024-03-08T13:55:26;6.90;99.90
34985;DHT22;21190;58.750;17.004;2024-03-08T13:57:54;6.90;99.90
34985;DHT22;21190;58.750;17.004;2024-03-08T14:00:25;6.90;99.90
34985;DHT22;21190;58.750;17.004;2024-03-08T14:02:55;6.90;99.90
34985;DHT22;21190;58.750;17.004;2024-03-08T14:05:22;7.00;99.90
34985;DHT22;21190;58.750;17.004;2024-03-08T14:07:49;6.90;99.90
34985;DHT22;21190;58.750;17.004;2024-03-08T14:10:17;6.80;99.90
34985;DHT22;21190;58.750;17.004;2024-03-08T14:12:49;6.80;99.90
34985;DHT22;21190;58.750;17.004;2024-03-08T14:15:18;6.70;99.90
34985;DHT22;21190;58.750;17.004;2024-03-08T14:17:51;6.70;99.90
34985;DHT22;21190;58.750;17.004;2024-03-08T14:20:19;6.70;99.90
34985;DHT22;21190;58.750;17.004;2024-03-08T14:22:46;6.70;99.90
34985;DHT22;21190;58.750;17.004;2024-03-08T14:25:13;6.70;99.90
34985;DHT22;21190;58.750;17.004;2024-03-08T14:27:45;6.70;99.90
34985;DHT22;21190;58.750;17.004;2024-03-08T14:30:13;6.70;99.90
34985;DHT22;21190;58.750;17.004;2024-03-08T14:32:59;6.70;99.90
34985;DHT22;21190;58.750;17.004;2024-03-08T14:35:29;6.60;99.90
34985;DHT22;21190;58.750;17.004;2024-03-08T14:37:57;6.60;99.90
34985;DHT22;21190;58.750;17.004;2024-03-08T14:40:25;6.50;99.90
34985;DHT22;21190;58.750;17.004;2024-03-08T14:42:53;6.50;99.90
34985;DHT22;21190;58.750;17.004;2024-03-08T14:45:20;6.40;99.90
34985;DHT22;21190;58.750;17.004;2024-03-08T14:47:48;6.40;99.90
34985;DHT22;21190;58.750;17.004;2024-03-08T14:50:19;6.40;99.90
34985;DHT22;21190;58.750;17.004;2024-03-08T14:52:47;6.40;99.90
34985;DHT22;21190;58.750;17.004;2024-03-08T14:55:16;6.40;99.90
34985;DHT22;21190;58.750;17.004;2024-03-08T14:57:43;6.30;99.90
34985;DHT22;21190;58.750;17.004;2024-03-08T15:00:13;6.40;99.90
34985;DHT22;21190;58.750;17.004;2024-03-08T15:02:59;6.40;99.90
34985;DHT22;21190;58.750;17.004;2024-03-08T15:05:26;6.40;99.90
34985;DHT22;21190;58.750;17.004;2024-03-08T15:07:54;6.40;99.90
34985;DHT22;21190;58.750;17.004;2024-03-08T15:10:22;6.30;99.90
34985;DHT22;21190;58.750;17.004;2024-03-08T15:12:52;6.20;99.90
34985;DHT22;21190;58.750;17.004;2024-03-08T15:15:23;6.20;99.90
34985;DHT22;21190;58.750;17.004;2024-03-08T15:17:52;6.20;99.90
34985;DHT22;21190;58.750;17.004;2024-03-08T15:20:21;6.20;99.90
34985;DHT22;21190;58.750;17.004;2024-03-08T15:22:56;6.30;99.90
34985;DHT22;21190;58.750;17.004;2024-03-08T15:25:26;6.30;99.90
34985;DHT22;21190;58.750;17.004;2024-03-08T15:27:54;5.80;99.90
34985;DHT22;21190;58.750;17.004;2024-03-08T15:30:22;5.40;99.90
34985;DHT22;21190;58.750;17.004;2024-03-08T15:32:58;5.10;99.90
34985;DHT22;21190;58.750;17.004;2024-03-08T15:35:27;4.70;99.90
34985;DHT22;21190;58.750;17.004;2024-03-08T15:37:54;4.50;99.90
34985;DHT22;21190;58.750;17.004;2024-03-08T15:40:25;4.30;99.90